createdAt,value
2023-12-02T00:03:21.681Z,100643.28
2023-12-02T00:06:50.777Z,100634.61
2023-12-02T00:10:20.338Z,100629.17
2023-12-02T00:13:49.220Z,100632.16
2023-12-02T00:17:11.290Z,100648.23
2023-12-02T00:20:40.294Z,100647.05
2023-12-02T00:24:09.279Z,100643.30
2023-12-02T00:27:38.718Z,100640.52
2023-12-02T00:31:07.660Z,100641.41
2023-12-02T00:34:19.469Z,100639.19
2023-12-02T00:37:43.996Z,100636.94
2023-12-02T00:41:12.923Z,100640.59
2023-12-02T00:44:42.370Z,100633.03
2023-12-02T00:48:11.351Z,100631.36
2023-12-02T00:51:40.452Z,100635.41
2023-12-02T00:55:09.347Z,100631.04
2023-12-02T00:58:41.669Z,100623.69
2023-12-02T01:02:11.095Z,100629.96
2023-12-02T01:05:41.079Z,100636.05
2023-12-02T01:09:09.996Z,100629.30
2023-12-02T01:12:38.908Z,100623.04
2023-12-02T01:16:07.973Z,100629.89
2023-12-02T01:19:36.828Z,100641.24
2023-12-02T01:23:05.708Z,100640.54
2023-12-02T01:26:35.636Z,100638.24
2023-12-02T01:30:04.597Z,100630.06
2023-12-02T01:33:33.732Z,100635.52
2023-12-02T01:37:02.615Z,100626.45
2023-12-02T01:40:31.408Z,100617.60
2023-12-02T01:44:00.932Z,100619.75
2023-12-02T01:47:13.236Z,100614.14
2023-12-02T01:50:43.233Z,100615.45
2023-12-02T01:54:12.724Z,100611.21
2023-12-02T01:57:42.214Z,100609.44
2023-12-02T02:00:54.768Z,100607.62
2023-12-02T02:04:23.947Z,100606.02
2023-12-02T02:07:52.712Z,100596.64
2023-12-02T02:11:24.256Z,100582.77
2023-12-02T02:14:46.245Z,100571.11
2023-12-02T02:18:15.837Z,100562.31
2023-12-02T02:21:44.838Z,100563.71
2023-12-02T02:25:13.772Z,100574.48
2023-12-02T02:28:42.621Z,100575.56
2023-12-02T02:32:11.433Z,100569.98
2023-12-02T02:35:40.643Z,100568.87
2023-12-02T02:39:09.728Z,100578.66
2023-12-02T02:42:31.826Z,100582.28
2023-12-02T02:46:00.849Z,100591.66
2023-12-02T02:49:28.672Z,100598.10
2023-12-02T02:52:58.099Z,100600.73
2023-12-02T02:56:07.140Z,100599.75
2023-12-02T02:59:35.939Z,100595.06
2023-12-02T03:02:57.672Z,100579.55
2023-12-02T03:06:25.346Z,100561.73
2023-12-02T03:09:55.152Z,100560.70
2023-12-02T03:13:24.074Z,100565.77
2023-12-02T03:16:53.050Z,100562.73
2023-12-02T03:20:22.299Z,100567.98
2023-12-02T03:23:51.097Z,100554.91
2023-12-02T03:27:12.731Z,100547.03
2023-12-02T03:30:41.536Z,100544.83
2023-12-02T03:34:11.549Z,100545.45
2023-12-02T03:37:33.812Z,100549.54
2023-12-02T03:41:02.983Z,100559.81
2023-12-02T03:44:31.776Z,100567.33
2023-12-02T03:47:53.362Z,100568.41
2023-12-02T03:51:22.276Z,100574.30
2023-12-02T03:54:43.864Z,100551.66
2023-12-02T03:58:12.322Z,100536.02
2023-12-02T04:01:42.869Z,100526.02
2023-12-02T04:05:05.427Z,100530.02
2023-12-02T04:08:24.085Z,100532.64
2023-12-02T04:11:53.265Z,100537.33
2023-12-02T04:15:22.436Z,100530.60
2023-12-02T04:18:51.668Z,100527.98
2023-12-02T04:22:23.565Z,100524.33
2023-12-02T04:25:32.674Z,100536.02
2023-12-02T04:29:01.993Z,100541.98
2023-12-02T04:32:31.593Z,100535.69
2023-12-02T04:35:54.348Z,100540.80
2023-12-02T04:39:24.657Z,100543.65
2023-12-02T04:42:54.031Z,100542.67
2023-12-02T04:46:23.251Z,100530.07
2023-12-02T04:49:46.510Z,100521.45
2023-12-02T04:53:15.824Z,100527.41
2023-12-02T04:56:45.171Z,100520.07
2023-12-02T05:00:14.236Z,100515.30
2023-12-02T05:03:46.891Z,100511.20
2023-12-02T05:07:16.043Z,100507.45
2023-12-02T05:10:45.044Z,100526.14
2023-12-02T05:14:15.123Z,100550.05
2023-12-02T05:17:44.441Z,100563.96
2023-12-02T05:21:13.677Z,100567.52
2023-12-02T05:24:42.693Z,100573.32
2023-12-02T05:28:11.939Z,100573.61
2023-12-02T05:31:40.991Z,100563.23
2023-12-02T05:35:10.360Z,100563.89
2023-12-02T05:38:39.578Z,100554.77
2023-12-02T05:42:09.078Z,100544.11
2023-12-02T05:45:38.847Z,100540.69
2023-12-02T05:49:08.489Z,100535.20
2023-12-02T05:52:41.773Z,100531.86
2023-12-02T05:56:11.602Z,100530.41
2023-12-02T05:59:41.038Z,100532.10
2023-12-02T06:03:10.213Z,100525.15
2023-12-02T06:06:39.274Z,100517.29
2023-12-02T06:10:09.667Z,100515.85
2023-12-02T06:13:38.799Z,100519.88
2023-12-02T06:17:07.451Z,100523.07
2023-12-02T06:20:36.881Z,100519.45
2023-12-02T06:24:06.331Z,100515.91
2023-12-02T06:27:35.826Z,100514.27
2023-12-02T06:31:04.138Z,100518.27
2023-12-02T06:34:33.300Z,100501.94
2023-12-02T06:38:02.221Z,100487.63
2023-12-02T06:41:30.952Z,100475.91
2023-12-02T06:44:58.566Z,100481.70
2023-12-02T06:48:27.718Z,100489.35
2023-12-02T06:51:56.544Z,100483.72
2023-12-02T06:58:42.720Z,100481.73
2023-12-02T07:02:11.566Z,100478.02
2023-12-02T07:05:40.961Z,100459.10
2023-12-02T07:09:09.857Z,100460.88
2023-12-02T07:12:38.701Z,100442.41
2023-12-02T07:16:07.957Z,100424.22
2023-12-02T07:19:36.787Z,100400.14
2023-12-02T07:23:04.576Z,100392.88
2023-12-02T07:26:33.464Z,100390.73
2023-12-02T07:33:35.023Z,100372.23
2023-12-02T07:37:03.996Z,100378.48
2023-12-02T07:40:32.829Z,100376.81
2023-12-02T07:44:02.412Z,100385.50
2023-12-02T07:47:24.693Z,100386.39
2023-12-02T07:50:54.063Z,100391.05
2023-12-02T07:54:48.573Z,100379.24
2023-12-02T07:58:12.358Z,100359.65
2023-12-02T08:01:41.374Z,100339.00
2023-12-02T08:08:42.297Z,100293.29
2023-12-02T08:12:11.632Z,100284.94
2023-12-02T08:15:40.818Z,100286.73
2023-12-02T08:19:10.640Z,100263.73
2023-12-02T08:22:40.223Z,100259.55
2023-12-02T08:26:09.265Z,100230.41
2023-12-02T08:29:38.204Z,100215.20
2023-12-02T08:33:07.215Z,100211.59
2023-12-02T08:36:36.344Z,100202.16
2023-12-02T08:40:05.260Z,100183.77
2023-12-02T08:43:34.209Z,100174.65
2023-12-02T08:47:03.271Z,100159.91
2023-12-02T08:50:32.393Z,100138.76
2023-12-02T08:54:01.433Z,100128.92
2023-12-02T08:57:20.727Z,100116.80
2023-12-02T09:00:50.843Z,100114.86
2023-12-02T09:04:20.508Z,100101.39
2023-12-02T09:07:49.695Z,100084.85
2023-12-02T09:11:18.864Z,100069.54
2023-12-02T09:14:48.099Z,100065.23
2023-12-02T09:18:42.960Z,100071.31
2023-12-02T09:22:25.081Z,100055.99
2023-12-02T09:25:54.043Z,100040.06
2023-12-02T09:29:23.132Z,100025.13
2023-12-02T09:32:59.823Z,99998.10
2023-12-02T09:36:29.039Z,99983.19
2023-12-02T09:39:58.177Z,99999.27
2023-12-02T09:43:28.416Z,99988.60
2023-12-02T09:47:03.603Z,99990.29
2023-12-02T09:50:51.279Z,99999.61
2023-12-02T09:54:34.280Z,99995.63
2023-12-02T09:58:03.273Z,100003.39
2023-12-02T10:01:45.375Z,99988.79
2023-12-02T10:05:38.738Z,99963.84
2023-12-02T10:09:07.699Z,99963.19
2023-12-02T10:12:42.906Z,99939.61
2023-12-02T10:16:11.931Z,99939.30
2023-12-02T10:19:41.578Z,99926.52
2023-12-02T10:23:10.508Z,99909.62
2023-12-02T10:26:41.189Z,99877.86
2023-12-02T10:30:10.251Z,99849.20
2023-12-02T10:33:39.496Z,99867.09
2023-12-02T10:37:11.048Z,99834.48
2023-12-02T10:40:43.215Z,99828.36
2023-12-02T10:44:15.110Z,99832.94
2023-12-02T10:47:43.164Z,99816.54
2023-12-02T10:51:12.127Z,99817.42
2023-12-02T10:54:41.056Z,99780.52
2023-12-02T10:58:11.340Z,99785.10
2023-12-02T11:01:37.521Z,99789.54
2023-12-02T11:05:07.088Z,99773.85
2023-12-02T11:08:35.996Z,99747.63
2023-12-02T11:12:08.115Z,99730.52
2023-12-02T11:15:41.021Z,99714.84
2023-12-02T11:19:11.994Z,99695.01
2023-12-02T11:22:36.169Z,99663.14
2023-12-02T11:26:16.955Z,99647.81
2023-12-02T11:30:03.749Z,99652.10
2023-12-02T11:33:47.805Z,99658.48
2023-12-02T11:37:16.824Z,99669.55
2023-12-02T11:40:52.015Z,99668.40
2023-12-02T11:44:23.575Z,99670.34
2023-12-02T11:47:55.871Z,99661.95
2023-12-02T11:51:24.931Z,99675.27
2023-12-02T11:54:58.493Z,99660.48
2023-12-02T11:58:54.421Z,99648.99
2023-12-02T12:02:44.586Z,99629.59
2023-12-02T12:06:22.425Z,99636.53
2023-12-02T12:10:00.602Z,99624.52
2023-12-02T12:13:29.519Z,99646.79
2023-12-02T12:16:51.008Z,99644.94
2023-12-02T12:20:18.370Z,99664.64
2023-12-02T12:23:47.220Z,99657.42
2023-12-02T12:27:16.040Z,99661.10
2023-12-02T12:30:50.004Z,99674.77
2023-12-02T12:34:22.032Z,99668.61
2023-12-02T12:37:51.118Z,99675.21
2023-12-02T12:41:20.020Z,99682.48
2023-12-02T12:44:49.042Z,99672.33
2023-12-02T12:48:17.962Z,99720.33
2023-12-02T12:51:46.929Z,99810.61
2023-12-02T12:55:15.770Z,99825.46
2023-12-02T12:58:37.846Z,99836.29
2023-12-02T13:02:06.740Z,99833.95
2023-12-02T13:05:41.279Z,99823.02
2023-12-02T13:09:07.566Z,99835.92
2023-12-02T13:12:48.900Z,99852.09
2023-12-02T13:16:17.618Z,99850.35
2023-12-02T13:19:46.750Z,99836.17
2023-12-02T13:23:15.559Z,99810.08
2023-12-02T13:26:44.442Z,99811.64
2023-12-02T13:30:14.142Z,99801.27
2023-12-02T13:33:35.422Z,99806.45
2023-12-02T13:37:04.317Z,99784.48
2023-12-02T13:40:28.669Z,99761.63
2023-12-02T13:43:57.794Z,99750.35
2023-12-02T13:47:38.463Z,99741.35
2023-12-02T13:51:07.308Z,99754.04
2023-12-02T13:54:57.153Z,99776.04
2023-12-02T13:58:44.203Z,99814.77
2023-12-02T14:02:15.948Z,99846.09
2023-12-02T14:05:47.707Z,99851.89
2023-12-02T14:09:16.532Z,99848.55
2023-12-02T14:12:47.330Z,99863.66
2023-12-02T14:16:27.811Z,99869.32
2023-12-02T14:19:55.216Z,99861.14
2023-12-02T14:23:43.378Z,99854.73
2023-12-02T14:27:15.247Z,99856.86
2023-12-02T14:30:38.200Z,99850.73
2023-12-02T14:34:18.891Z,99863.07
2023-12-02T14:37:49.211Z,99881.95
2023-12-02T14:41:42.184Z,99892.17
2023-12-02T14:45:20.123Z,99887.98
2023-12-02T14:48:51.745Z,99896.70
2023-12-02T14:52:20.618Z,99899.02
2023-12-02T14:55:49.498Z,99909.41
2023-12-02T14:59:21.220Z,99909.33
2023-12-02T15:02:50.904Z,99906.71
2023-12-02T15:06:19.868Z,99919.21
2023-12-02T15:09:48.713Z,99930.69
2023-12-02T15:13:17.572Z,99933.77
2023-12-02T15:16:49.323Z,99933.06
2023-12-02T15:20:18.172Z,99948.23
2023-12-02T15:23:59.095Z,99951.23
2023-12-02T15:27:27.957Z,99949.56
2023-12-02T15:30:56.758Z,99975.41
2023-12-02T15:34:25.532Z,99992.10
2023-12-02T15:37:54.332Z,99989.20
2023-12-02T15:41:23.210Z,99991.69
2023-12-02T15:44:51.963Z,100013.57
2023-12-02T15:48:20.791Z,100020.96
2023-12-02T15:51:49.664Z,100029.61
2023-12-02T15:55:18.866Z,100051.37
2023-12-02T15:58:47.648Z,100069.98
2023-12-02T16:01:53.239Z,100061.95
2023-12-02T16:05:21.993Z,100074.41
2023-12-02T16:08:50.993Z,100090.81
2023-12-02T16:12:19.944Z,100094.63
2023-12-02T16:15:48.984Z,100108.66
2023-12-02T16:19:17.945Z,100114.64
2023-12-02T16:22:46.824Z,100108.53
2023-12-02T16:26:15.785Z,100106.67
2023-12-02T16:29:44.572Z,100111.36
2023-12-02T16:33:13.510Z,100113.42
2023-12-02T16:36:43.331Z,100126.84
2023-12-02T16:40:12.125Z,100134.58
2023-12-02T16:43:40.906Z,100149.42
2023-12-02T16:47:09.714Z,100150.28
2023-12-02T16:50:38.674Z,100153.52
2023-12-02T16:54:07.474Z,100166.93
2023-12-02T16:57:36.356Z,100173.30
2023-12-02T17:01:06.165Z,100173.45
2023-12-02T17:04:34.989Z,100168.47
2023-12-02T17:08:03.910Z,100170.20
2023-12-02T17:11:42.655Z,100174.84
2023-12-02T17:15:12.341Z,100198.98
2023-12-02T17:18:41.361Z,100201.03
2023-12-02T17:22:03.911Z,100215.45
2023-12-02T17:25:32.729Z,100215.41
2023-12-02T17:29:01.496Z,100231.20
2023-12-02T17:32:30.293Z,100244.15
2023-12-02T17:35:59.918Z,100248.84
2023-12-02T17:39:18.994Z,100241.49
2023-12-02T17:42:47.847Z,100237.73
2023-12-02T17:46:16.703Z,100251.50
2023-12-02T17:49:45.973Z,100264.05
2023-12-02T17:53:14.760Z,100266.06
2023-12-02T17:56:43.620Z,100274.15
2023-12-02T17:59:57.949Z,100284.99
2023-12-02T18:03:26.869Z,100292.41
2023-12-02T18:06:55.641Z,100300.70
2023-12-02T18:10:25.025Z,100305.20
2023-12-02T18:13:53.857Z,100310.05
2023-12-02T18:17:23.686Z,100321.30
2023-12-02T18:20:42.894Z,100327.91
2023-12-02T18:24:10.312Z,100329.69
2023-12-02T18:27:40.927Z,100336.30
2023-12-02T18:31:09.919Z,100343.80
2023-12-02T18:34:39.041Z,100347.49
2023-12-02T18:37:56.921Z,100359.39
2023-12-02T18:41:20.439Z,100370.80
2023-12-02T18:44:49.278Z,100383.40
2023-12-02T18:48:18.428Z,100384.84
2023-12-02T18:51:47.413Z,100384.89
2023-12-02T18:55:16.180Z,100398.36
2023-12-02T18:58:45.010Z,100400.61
2023-12-02T19:01:56.972Z,100399.23
2023-12-02T19:05:25.881Z,100402.33
2023-12-02T19:08:55.053Z,100407.50
2023-12-02T19:12:24.094Z,100411.02
2023-12-02T19:15:53.880Z,100415.52
2023-12-02T19:19:23.013Z,100421.34
2023-12-02T19:22:45.426Z,100425.37
2023-12-02T19:26:14.181Z,100428.76
2023-12-02T19:29:35.852Z,100436.80
2023-12-02T19:33:05.759Z,100442.48
2023-12-02T19:36:37.062Z,100452.16
2023-12-02T19:40:06.757Z,100446.41
2023-12-02T19:43:36.571Z,100451.34
2023-12-02T19:47:01.155Z,100453.62
2023-12-02T19:50:30.044Z,100453.48
2023-12-02T19:53:59.032Z,100456.93
2023-12-02T19:57:29.029Z,100459.16
2023-12-02T20:00:57.079Z,100466.61
2023-12-02T20:04:25.282Z,100480.59
2023-12-02T20:07:48.385Z,100482.64
2023-12-02T20:11:17.621Z,100490.22
2023-12-02T20:14:47.998Z,100486.86
2023-12-02T20:18:17.649Z,100485.95
2023-12-02T20:21:47.583Z,100491.98
2023-12-02T20:25:17.098Z,100491.81
2023-12-02T20:28:46.495Z,100506.84
2023-12-02T20:32:15.934Z,100512.59
2023-12-02T20:35:39.781Z,100519.55
2023-12-02T20:39:10.135Z,100525.27
2023-12-02T20:42:39.441Z,100532.50
2023-12-02T20:46:02.076Z,100534.23
2023-12-02T20:49:15.974Z,100538.05
2023-12-02T20:52:45.883Z,100538.59
2023-12-02T20:55:38.640Z,100536.70
2023-12-02T20:59:08.038Z,100541.70
2023-12-02T21:02:37.483Z,100549.89
2023-12-02T21:06:07.326Z,100555.59
2023-12-02T21:09:30.050Z,100566.02
2023-12-02T21:12:52.139Z,100575.52
2023-12-02T21:16:20.379Z,100572.02
2023-12-02T21:19:50.053Z,100563.17
2023-12-02T21:23:19.565Z,100557.98
2023-12-02T21:26:48.249Z,100556.52
2023-12-02T21:30:17.635Z,100563.71
2023-12-02T21:33:46.889Z,100570.27
2023-12-02T21:37:16.530Z,100580.48
2023-12-02T21:40:46.233Z,100586.75
2023-12-02T21:44:16.448Z,100587.14
2023-12-02T21:47:29.242Z,100595.71
2023-12-02T21:50:58.413Z,100610.85
2023-12-02T21:54:27.909Z,100615.92
2023-12-02T21:57:58.703Z,100621.11
2023-12-02T22:01:27.176Z,100632.40
2023-12-02T22:05:00.629Z,100637.16
2023-12-02T22:08:30.053Z,100628.27
2023-12-02T22:11:59.442Z,100634.02
2023-12-02T22:15:22.675Z,100645.14
2023-12-02T22:18:41.885Z,100655.76
2023-12-02T22:22:11.459Z,100663.08
2023-12-02T22:25:42.586Z,100663.98
2023-12-02T22:29:13.850Z,100674.11
2023-12-02T22:32:43.045Z,100681.96
2023-12-02T22:36:21.921Z,100673.36
2023-12-02T22:39:51.584Z,100673.20
2023-12-02T22:43:21.903Z,100691.59
2023-12-02T22:46:50.825Z,100703.88
2023-12-02T22:50:19.743Z,100699.25
2023-12-02T22:53:49.448Z,100702.39
2023-12-02T22:57:19.248Z,100713.50
2023-12-02T23:00:38.268Z,100731.20
2023-12-02T23:04:00.064Z,100733.82
2023-12-02T23:07:29.049Z,100732.60
2023-12-02T23:10:58.362Z,100739.35
2023-12-02T23:14:37.990Z,100745.73
2023-12-02T23:18:07.488Z,100745.33
2023-12-02T23:21:36.914Z,100755.12
2023-12-02T23:25:06.107Z,100762.41
2023-12-02T23:28:35.448Z,100765.93
2023-12-02T23:32:05.868Z,100765.09
2023-12-02T23:35:35.141Z,100770.02
2023-12-02T23:39:04.289Z,100772.54
2023-12-02T23:42:34.063Z,100776.10
2023-12-02T23:46:03.293Z,100779.63
2023-12-02T23:49:32.820Z,100779.01
2023-12-02T23:53:02.345Z,100790.98
2023-12-02T23:56:31.332Z,100796.95
